createdAt,value
2023-04-30T00:01:38.762Z,28.80
2023-04-30T00:04:05.910Z,28.47
2023-04-30T00:06:33.143Z,29.70
2023-04-30T00:08:59.824Z,27.87
2023-04-30T00:11:26.781Z,28.93
2023-04-30T00:13:53.935Z,29.03
2023-04-30T00:16:20.683Z,29.87
2023-04-30T00:18:47.839Z,29.37
2023-04-30T00:21:14.625Z,28.53
2023-04-30T00:23:41.734Z,28.97
2023-04-30T00:26:08.835Z,27.00
2023-04-30T00:28:35.901Z,26.37
2023-04-30T00:31:03.324Z,25.27
2023-04-30T00:33:30.422Z,26.17
2023-04-30T00:35:57.162Z,25.53
2023-04-30T00:38:24.054Z,24.70
2023-04-30T00:40:51.200Z,26.13
2023-04-30T00:43:18.289Z,24.93
2023-04-30T00:45:45.568Z,26.60
2023-04-30T00:48:12.702Z,27.07
2023-04-30T00:50:40.642Z,25.83
2023-04-30T00:53:07.854Z,25.27
2023-04-30T00:55:35.253Z,25.87
2023-04-30T00:58:02.373Z,24.90
2023-04-30T01:00:29.926Z,25.23
2023-04-30T01:02:57.409Z,26.20
2023-04-30T01:05:24.624Z,26.37
2023-04-30T01:07:51.834Z,25.67
2023-04-30T01:10:19.095Z,26.40
2023-04-30T01:13:20.283Z,23.20
2023-04-30T01:15:54.325Z,24.00
2023-04-30T01:18:21.454Z,23.10
2023-04-30T01:20:54.973Z,23.53
2023-04-30T01:23:27.294Z,23.53
2023-04-30T01:26:10.876Z,22.57
2023-04-30T01:28:39.780Z,22.97
2023-04-30T01:31:18.096Z,22.30
2023-04-30T01:33:45.258Z,20.63
2023-04-30T01:36:29.754Z,19.83
2023-04-30T01:39:07.024Z,19.23
2023-04-30T01:41:56.495Z,20.17
2023-04-30T01:44:32.803Z,17.87
2023-04-30T01:47:07.643Z,18.03
2023-04-30T01:49:45.669Z,17.03
2023-04-30T01:52:17.395Z,15.93
2023-04-30T01:54:51.234Z,16.40
2023-04-30T01:57:47.916Z,15.93
2023-04-30T02:00:17.809Z,17.80
2023-04-30T02:02:45.040Z,16.83
2023-04-30T02:05:12.206Z,16.30
2023-04-30T02:07:47.993Z,16.60
2023-04-30T02:10:15.558Z,16.33
2023-04-30T02:12:42.691Z,15.97
2023-04-30T02:15:09.882Z,16.57
2023-04-30T02:17:37.131Z,15.80
2023-04-30T02:20:04.688Z,15.87
2023-04-30T02:22:31.812Z,16.17
2023-04-30T02:24:58.898Z,14.97
2023-04-30T02:27:26.286Z,15.37
2023-04-30T02:29:54.034Z,14.87
2023-04-30T02:32:21.680Z,14.40
2023-04-30T02:34:48.568Z,14.80
2023-04-30T02:37:15.491Z,14.37
2023-04-30T02:39:42.729Z,13.20
2023-04-30T02:42:09.654Z,15.00
2023-04-30T02:44:36.798Z,14.67
2023-04-30T02:47:03.967Z,16.03
2023-04-30T02:49:30.738Z,14.80
2023-04-30T02:51:57.525Z,14.60
2023-04-30T02:54:24.692Z,13.70
2023-04-30T02:56:51.457Z,14.97
2023-04-30T02:59:19.713Z,16.07
2023-04-30T03:01:46.427Z,13.50
2023-04-30T03:04:13.558Z,14.00
2023-04-30T03:06:40.356Z,14.20
2023-04-30T03:09:08.140Z,16.43
2023-04-30T03:11:37.575Z,15.70
2023-04-30T03:14:04.988Z,15.57
2023-04-30T03:16:32.157Z,16.53
2023-04-30T03:18:59.461Z,15.97
2023-04-30T03:21:26.164Z,14.50
2023-04-30T03:23:52.914Z,16.70
2023-04-30T03:26:20.072Z,15.27
2023-04-30T03:28:47.265Z,15.60
2023-04-30T03:31:14.426Z,15.37
2023-04-30T03:33:41.679Z,14.87
2023-04-30T03:36:08.826Z,15.07
2023-04-30T03:38:35.600Z,15.77
2023-04-30T03:41:03.698Z,16.50
2023-04-30T03:43:31.370Z,17.23
2023-04-30T03:45:58.836Z,17.63
2023-04-30T03:48:26.071Z,16.30
2023-04-30T03:50:53.156Z,17.57
2023-04-30T03:53:20.330Z,16.13
2023-04-30T03:55:47.488Z,17.00
2023-04-30T03:58:15.319Z,16.83
2023-04-30T04:00:42.088Z,15.83
2023-04-30T04:03:08.899Z,15.77
2023-04-30T04:05:36.176Z,16.80
2023-04-30T04:08:03.283Z,16.23
2023-04-30T04:10:30.472Z,16.87
2023-04-30T04:12:58.030Z,15.53
2023-04-30T04:15:25.225Z,17.07
2023-04-30T04:17:52.505Z,16.67
2023-04-30T04:20:19.683Z,16.03
2023-04-30T04:22:46.793Z,16.20
2023-04-30T04:25:13.966Z,16.67
2023-04-30T04:27:41.176Z,17.27
2023-04-30T04:30:09.294Z,17.27
2023-04-30T04:32:47.036Z,15.83
2023-04-30T04:35:15.082Z,15.97
2023-04-30T04:37:42.268Z,17.60
2023-04-30T04:40:10.840Z,16.80
2023-04-30T04:42:38.903Z,16.33
2023-04-30T04:45:10.047Z,16.10
2023-04-30T04:47:38.134Z,16.67
2023-04-30T04:50:05.204Z,16.40
2023-04-30T04:52:32.047Z,16.83
2023-04-30T04:54:59.482Z,16.97
2023-04-30T04:57:26.823Z,17.23
2023-04-30T04:59:54.094Z,15.37
2023-04-30T05:02:23.443Z,14.93
2023-04-30T05:04:51.098Z,15.23
2023-04-30T05:07:18.421Z,15.80
2023-04-30T05:09:46.889Z,15.33
2023-04-30T05:12:14.741Z,15.60
2023-04-30T05:14:41.547Z,16.03
2023-04-30T05:17:08.776Z,15.23
2023-04-30T05:19:35.912Z,14.40
2023-04-30T05:22:03.036Z,15.50
2023-04-30T05:24:30.592Z,14.70
2023-04-30T05:26:57.736Z,15.87
2023-04-30T05:29:24.508Z,14.93
2023-04-30T05:31:51.687Z,15.67
2023-04-30T05:34:18.510Z,15.20
2023-04-30T05:36:45.635Z,15.60
2023-04-30T05:39:12.470Z,14.13
2023-04-30T05:41:39.561Z,15.33
2023-04-30T05:44:06.463Z,15.73
2023-04-30T05:46:33.252Z,15.03
2023-04-30T05:48:59.923Z,16.27
2023-04-30T05:51:27.764Z,15.13
2023-04-30T05:53:54.736Z,15.53
2023-04-30T05:56:21.884Z,16.00
2023-04-30T05:58:48.640Z,14.90
2023-04-30T06:01:15.776Z,15.87
2023-04-30T06:03:43.114Z,14.37
2023-04-30T06:06:09.913Z,13.17
2023-04-30T06:08:37.353Z,11.23
2023-04-30T06:11:05.342Z,10.37
2023-04-30T06:13:32.677Z,9.10
2023-04-30T06:15:59.555Z,8.07
2023-04-30T06:18:26.294Z,8.48
2023-04-30T06:20:53.371Z,8.32
2023-04-30T06:23:20.020Z,8.75
2023-04-30T06:25:46.772Z,8.02
2023-04-30T06:28:13.483Z,8.30
2023-04-30T06:30:41.258Z,9.95
2023-04-30T06:33:08.650Z,10.83
2023-04-30T06:35:35.587Z,11.10
2023-04-30T06:38:02.333Z,12.83
2023-04-30T06:40:29.414Z,11.10
2023-04-30T06:42:56.468Z,10.30
2023-04-30T06:45:23.212Z,10.53
2023-04-30T06:47:51.634Z,10.50
2023-04-30T06:50:18.834Z,11.20
2023-04-30T06:52:45.965Z,11.07
2023-04-30T06:55:13.118Z,10.97
2023-04-30T06:57:39.944Z,11.90
2023-04-30T07:00:07.547Z,11.63
2023-04-30T07:02:34.355Z,11.37
2023-04-30T07:05:01.511Z,12.07
2023-04-30T07:07:28.599Z,11.23
2023-04-30T07:09:55.943Z,10.77
2023-04-30T07:12:23.816Z,12.33
2023-04-30T07:14:50.581Z,11.73
2023-04-30T07:17:17.706Z,12.20
2023-04-30T07:19:44.822Z,11.37
2023-04-30T07:22:11.950Z,12.17
2023-04-30T07:24:39.100Z,11.50
2023-04-30T07:27:07.390Z,11.73
2023-04-30T07:29:34.525Z,10.90
2023-04-30T07:32:01.292Z,11.07
2023-04-30T07:34:28.562Z,12.23
2023-04-30T07:36:55.465Z,11.70
2023-04-30T07:39:22.573Z,10.97
2023-04-30T07:41:49.239Z,10.47
2023-04-30T07:44:15.983Z,11.07
2023-04-30T07:46:43.282Z,11.43
2023-04-30T07:49:10.464Z,10.90
2023-04-30T07:51:37.406Z,11.50
2023-04-30T07:54:05.039Z,10.50
2023-04-30T07:56:31.910Z,10.33
2023-04-30T07:58:58.614Z,10.20
2023-04-30T08:01:25.956Z,9.87
2023-04-30T08:03:53.123Z,9.37
2023-04-30T08:06:20.046Z,9.70
2023-04-30T08:08:47.779Z,10.67
2023-04-30T08:11:16.167Z,9.53
2023-04-30T08:13:43.329Z,9.37
2023-04-30T08:16:10.432Z,9.57
2023-04-30T08:18:39.011Z,8.93
2023-04-30T08:21:06.406Z,8.03
2023-04-30T08:23:33.613Z,8.03
2023-04-30T08:26:00.787Z,8.87
2023-04-30T08:28:27.408Z,7.90
2023-04-30T08:30:54.495Z,7.53
2023-04-30T08:33:21.225Z,7.00
2023-04-30T08:35:47.996Z,7.03
2023-04-30T08:38:15.140Z,6.67
2023-04-30T08:40:51.735Z,7.13
2023-04-30T08:43:20.361Z,6.30
2023-04-30T08:45:48.928Z,7.87
2023-04-30T08:48:16.915Z,7.33
2023-04-30T08:50:44.035Z,7.67
2023-04-30T08:53:12.594Z,6.73
2023-04-30T08:55:40.334Z,6.80
2023-04-30T08:58:08.696Z,6.27
2023-04-30T09:00:37.991Z,6.30
2023-04-30T09:03:05.752Z,6.00
2023-04-30T09:05:32.908Z,6.57
2023-04-30T09:08:03.765Z,6.03
2023-04-30T09:10:35.262Z,5.83
2023-04-30T09:13:09.611Z,5.13
2023-04-30T09:15:38.604Z,5.17
2023-04-30T09:18:12.394Z,4.43
2023-04-30T09:20:57.882Z,5.30
2023-04-30T09:23:25.565Z,5.77
2023-04-30T09:25:52.682Z,5.10
2023-04-30T09:28:23.722Z,4.47
2023-04-30T09:30:51.518Z,3.87
2023-04-30T09:33:18.608Z,3.50
2023-04-30T09:35:46.546Z,1.90
2023-04-30T09:38:30.203Z,1.80
2023-04-30T09:41:00.248Z,2.43
2023-04-30T09:43:28.654Z,3.23
2023-04-30T09:45:57.901Z,3.10
2023-04-30T09:48:30.379Z,2.40
2023-04-30T09:50:57.249Z,1.97
2023-04-30T09:53:24.473Z,2.10
2023-04-30T09:55:52.311Z,1.60
2023-04-30T09:58:19.843Z,1.90
2023-04-30T10:00:48.341Z,1.73
2023-04-30T10:03:16.724Z,1.77
2023-04-30T10:05:47.374Z,2.00
2023-04-30T10:08:22.163Z,1.93
2023-04-30T10:10:52.870Z,1.70
2023-04-30T10:13:21.829Z,1.73
2023-04-30T10:15:54.394Z,1.90
2023-04-30T10:18:31.236Z,1.60
2023-04-30T10:21:02.910Z,1.60
2023-04-30T10:23:30.613Z,1.80
2023-04-30T10:25:58.819Z,2.00
2023-04-30T10:28:25.882Z,1.90
2023-04-30T10:30:52.956Z,1.80
2023-04-30T10:33:23.591Z,2.00
2023-04-30T10:36:02.559Z,1.70
2023-04-30T10:38:32.049Z,1.90
2023-04-30T10:41:02.804Z,2.00
2023-04-30T10:43:33.411Z,1.80
2023-04-30T10:46:00.679Z,1.70
2023-04-30T10:48:28.229Z,2.00
2023-04-30T10:50:59.558Z,1.50
2023-04-30T10:53:28.880Z,1.80
2023-04-30T10:56:01.261Z,1.80
2023-04-30T10:58:34.163Z,1.80
2023-04-30T11:01:07.084Z,1.50
2023-04-30T11:03:35.809Z,1.50
2023-04-30T11:06:12.615Z,1.50
2023-04-30T11:08:42.904Z,1.30
2023-04-30T11:11:14.548Z,1.50
2023-04-30T11:13:42.204Z,1.60
2023-04-30T11:16:09.397Z,1.40
2023-04-30T11:18:45.663Z,1.40
2023-04-30T11:21:13.186Z,1.67
2023-04-30T11:23:44.291Z,2.00
2023-04-30T11:26:11.372Z,1.40
2023-04-30T11:28:38.461Z,1.90
2023-04-30T11:31:05.885Z,1.30
2023-04-30T11:33:34.000Z,1.20
2023-04-30T11:36:02.163Z,1.30
2023-04-30T11:38:40.705Z,1.48
2023-04-30T11:41:07.394Z,1.30
2023-04-30T11:43:34.758Z,1.57
2023-04-30T11:46:12.562Z,1.30
2023-04-30T11:48:44.486Z,1.10
2023-04-30T11:51:22.064Z,1.77
2023-04-30T11:53:50.945Z,1.23
2023-04-30T11:56:25.266Z,1.35
2023-04-30T11:58:53.411Z,1.10
2023-04-30T12:01:21.153Z,0.90
2023-04-30T12:03:50.068Z,1.17
2023-04-30T12:06:28.727Z,0.90
2023-04-30T12:08:56.695Z,2.00
2023-04-30T12:11:33.857Z,1.50
2023-04-30T12:14:07.364Z,1.00
2023-04-30T12:16:41.467Z,1.40
2023-04-30T12:19:09.580Z,0.90
2023-04-30T12:21:37.200Z,0.98
2023-04-30T12:24:04.428Z,1.20
2023-04-30T12:26:41.989Z,1.70
2023-04-30T12:29:16.040Z,1.17
2023-04-30T12:31:43.686Z,1.13
2023-04-30T12:34:13.840Z,1.00
2023-04-30T12:36:44.693Z,0.90
2023-04-30T12:39:16.256Z,1.10
2023-04-30T12:41:45.080Z,0.90
2023-04-30T12:44:18.320Z,1.00
2023-04-30T12:46:46.636Z,0.97
2023-04-30T12:49:25.555Z,1.00
2023-04-30T12:51:52.627Z,1.10
2023-04-30T12:54:30.420Z,0.98
2023-04-30T12:57:08.092Z,1.03
2023-04-30T12:59:37.977Z,1.10
2023-04-30T13:02:13.807Z,1.40
2023-04-30T13:04:42.532Z,1.35
2023-04-30T13:07:09.437Z,1.20
2023-04-30T13:09:37.136Z,1.10
2023-04-30T13:12:04.568Z,1.00
2023-04-30T13:14:32.141Z,1.10
2023-04-30T13:16:59.458Z,1.08
2023-04-30T13:19:26.888Z,1.00
2023-04-30T13:21:54.032Z,1.10
2023-04-30T13:24:20.932Z,1.00
2023-04-30T13:26:48.142Z,0.90
2023-04-30T13:29:15.202Z,1.10
2023-04-30T13:31:42.508Z,1.10
2023-04-30T13:34:10.150Z,1.20
2023-04-30T13:36:37.040Z,1.25
2023-04-30T13:39:04.798Z,1.15
2023-04-30T13:41:31.998Z,1.02
2023-04-30T13:44:00.200Z,1.02
2023-04-30T13:46:27.071Z,0.82
2023-04-30T13:48:53.795Z,1.10
2023-04-30T13:51:20.954Z,1.02
2023-04-30T13:53:48.084Z,1.05
2023-04-30T13:56:15.489Z,1.30
2023-04-30T13:58:42.207Z,1.30
2023-04-30T14:01:10.304Z,1.00
2023-04-30T14:03:37.810Z,1.10
2023-04-30T14:06:05.949Z,1.10
2023-04-30T14:08:33.721Z,1.13
2023-04-30T14:11:00.869Z,1.10
2023-04-30T14:13:28.002Z,1.33
2023-04-30T14:15:56.151Z,1.10
2023-04-30T14:18:23.131Z,0.90
2023-04-30T14:20:50.874Z,1.00
2023-04-30T14:23:18.011Z,1.20
2023-04-30T14:25:44.763Z,1.20
2023-04-30T14:28:11.978Z,1.05
2023-04-30T14:30:38.842Z,1.20
2023-04-30T14:33:06.245Z,1.38
2023-04-30T14:35:33.617Z,1.10
2023-04-30T14:38:00.802Z,1.13
2023-04-30T14:40:27.976Z,1.00
2023-04-30T14:42:54.659Z,1.33
2023-04-30T14:45:21.350Z,1.25
2023-04-30T14:47:48.665Z,0.90
2023-04-30T14:50:15.469Z,1.00
2023-04-30T14:52:43.057Z,1.08
2023-04-30T14:55:09.887Z,1.07
2023-04-30T14:57:36.993Z,1.00
2023-04-30T15:00:04.509Z,1.15
2023-04-30T15:02:31.375Z,1.10
2023-04-30T15:04:58.561Z,1.10
2023-04-30T15:07:25.753Z,1.30
2023-04-30T15:09:52.939Z,1.23
2023-04-30T15:12:20.110Z,0.90
2023-04-30T15:14:46.807Z,1.08
2023-04-30T15:17:13.776Z,1.10
2023-04-30T15:19:40.536Z,1.10
2023-04-30T15:22:07.837Z,1.10
2023-04-30T15:24:35.553Z,1.10
2023-04-30T15:27:02.414Z,1.10
2023-04-30T15:29:29.065Z,1.10
2023-04-30T15:31:56.516Z,1.10
2023-04-30T15:34:23.910Z,1.10
2023-04-30T15:36:51.010Z,1.10
2023-04-30T15:39:19.225Z,1.08
2023-04-30T15:41:46.005Z,1.10
2023-04-30T15:44:12.722Z,1.27
2023-04-30T15:46:39.930Z,1.03
2023-04-30T15:49:07.025Z,1.10
2023-04-30T15:51:35.212Z,1.40
2023-04-30T15:54:02.273Z,1.23
2023-04-30T15:56:29.475Z,1.20
2023-04-30T15:58:56.210Z,1.23
2023-04-30T16:01:23.595Z,1.50
2023-04-30T16:03:50.987Z,1.15
2023-04-30T16:06:18.636Z,1.40
2023-04-30T16:08:46.366Z,1.30
2023-04-30T16:11:13.107Z,1.25
2023-04-30T16:13:39.909Z,1.10
2023-04-30T16:16:08.764Z,1.10
2023-04-30T16:18:35.625Z,1.17
2023-04-30T16:21:02.725Z,1.50
2023-04-30T16:23:29.437Z,1.40
2023-04-30T16:25:56.914Z,1.30
2023-04-30T16:28:24.461Z,1.20
2023-04-30T16:30:51.595Z,1.20
2023-04-30T16:33:18.923Z,1.23
2023-04-30T16:35:45.716Z,1.30
2023-04-30T16:38:12.767Z,1.40
2023-04-30T16:40:39.850Z,1.40
2023-04-30T16:43:07.875Z,1.57
2023-04-30T16:45:35.146Z,1.17
2023-04-30T16:48:01.967Z,1.40
2023-04-30T16:50:28.736Z,1.20
2023-04-30T16:52:55.714Z,1.20
2023-04-30T16:55:22.800Z,1.23
2023-04-30T16:57:50.652Z,1.00
2023-04-30T17:00:18.835Z,1.38
2023-04-30T17:02:48.652Z,1.25
2023-04-30T17:05:16.637Z,1.35
2023-04-30T17:07:44.524Z,1.25
2023-04-30T17:10:12.754Z,1.20
2023-04-30T17:12:40.363Z,1.40
2023-04-30T17:15:07.870Z,0.95
2023-04-30T17:17:34.612Z,1.00
2023-04-30T17:20:01.313Z,0.95
2023-04-30T17:22:28.393Z,1.30
2023-04-30T17:24:55.125Z,1.30
2023-04-30T17:27:21.880Z,1.45
2023-04-30T17:29:49.155Z,1.13
2023-04-30T17:32:17.630Z,1.20
2023-04-30T17:34:44.900Z,1.30
2023-04-30T17:37:11.925Z,1.40
2023-04-30T17:39:38.631Z,1.35
2023-04-30T17:42:05.775Z,1.45
2023-04-30T17:44:33.598Z,1.45
2023-04-30T17:47:00.746Z,1.63
2023-04-30T17:49:28.539Z,1.60
2023-04-30T17:51:55.345Z,2.60
2023-04-30T17:54:22.078Z,1.95
2023-04-30T17:56:49.236Z,2.40
2023-04-30T17:59:16.313Z,1.63
2023-04-30T18:01:43.035Z,3.40
2023-04-30T18:04:10.321Z,3.13
2023-04-30T18:06:37.181Z,2.47
2023-04-30T18:09:04.255Z,1.60
2023-04-30T18:11:31.401Z,1.97
2023-04-30T18:13:58.043Z,4.67
2023-04-30T18:16:25.272Z,22.77
2023-04-30T18:18:52.091Z,2.63
2023-04-30T18:21:19.352Z,1.93
2023-04-30T18:23:46.555Z,4.13
2023-04-30T18:26:13.688Z,6.33
2023-04-30T18:28:41.475Z,1.80
2023-04-30T18:31:08.550Z,6.37
2023-04-30T18:33:36.295Z,2.03
2023-04-30T18:36:05.996Z,1.90
2023-04-30T18:38:35.678Z,2.53
2023-04-30T18:41:02.349Z,3.77
2023-04-30T18:43:29.064Z,2.67
2023-04-30T18:45:56.565Z,2.53
2023-04-30T18:48:23.335Z,1.93
2023-04-30T18:50:50.714Z,1.93
2023-04-30T18:53:18.151Z,3.10
2023-04-30T18:55:45.458Z,1.70
2023-04-30T18:58:12.632Z,4.40
2023-04-30T19:00:43.042Z,3.27
2023-04-30T19:03:10.102Z,2.10
2023-04-30T19:05:37.701Z,6.03
2023-04-30T19:08:04.509Z,5.30
2023-04-30T19:10:31.639Z,4.30
2023-04-30T19:12:59.360Z,7.37
2023-04-30T19:15:29.453Z,3.60
2023-04-30T19:17:56.757Z,6.37
2023-04-30T19:20:23.969Z,4.20
2023-04-30T19:22:50.756Z,2.40
2023-04-30T19:25:17.981Z,3.10
2023-04-30T19:27:45.098Z,2.70
2023-04-30T19:30:12.328Z,2.17
2023-04-30T19:32:39.613Z,1.87
2023-04-30T19:35:06.952Z,1.87
2023-04-30T19:37:34.077Z,1.83
2023-04-30T19:40:01.168Z,1.90
2023-04-30T19:42:28.123Z,1.80
2023-04-30T19:44:55.181Z,1.93
2023-04-30T19:47:23.318Z,1.83
2023-04-30T19:49:51.241Z,2.10
2023-04-30T19:52:17.884Z,2.00
2023-04-30T19:54:48.604Z,2.83
2023-04-30T19:57:15.732Z,2.27
2023-04-30T19:59:42.830Z,1.90
2023-04-30T20:02:09.972Z,2.10
2023-04-30T20:04:37.080Z,1.97
2023-04-30T20:07:04.400Z,2.20
2023-04-30T20:09:31.551Z,2.07
2023-04-30T20:11:58.223Z,2.37
2023-04-30T20:14:24.965Z,2.37
2023-04-30T20:16:54.994Z,2.30
2023-04-30T20:19:22.538Z,2.10
2023-04-30T20:21:50.145Z,2.20
2023-04-30T20:24:16.993Z,2.50
2023-04-30T20:26:43.726Z,2.27
2023-04-30T20:29:10.792Z,2.30
2023-04-30T20:31:38.015Z,2.37
2023-04-30T20:34:05.488Z,2.60
2023-04-30T20:36:32.481Z,2.40
2023-04-30T20:38:59.253Z,2.03
2023-04-30T20:41:26.671Z,2.30
2023-04-30T20:43:54.208Z,2.47
2023-04-30T20:46:24.245Z,2.33
2023-04-30T20:48:53.664Z,2.50
2023-04-30T20:51:20.328Z,2.77
2023-04-30T20:53:47.474Z,2.87
2023-04-30T20:56:14.189Z,2.97
2023-04-30T20:58:42.853Z,3.10
2023-04-30T21:01:09.994Z,3.13
2023-04-30T21:03:37.182Z,3.30
2023-04-30T21:06:05.185Z,3.37
2023-04-30T21:08:32.670Z,3.30
2023-04-30T21:10:59.529Z,3.23
2023-04-30T21:13:26.652Z,3.27
2023-04-30T21:15:53.811Z,3.00
2023-04-30T21:18:21.093Z,3.40
2023-04-30T21:20:47.815Z,3.27
2023-04-30T21:23:14.928Z,3.10
2023-04-30T21:25:41.801Z,3.00
2023-04-30T21:28:08.840Z,2.97
2023-04-30T21:30:38.641Z,3.40
2023-04-30T21:33:05.809Z,3.00
2023-04-30T21:35:33.064Z,2.93
2023-04-30T21:37:59.916Z,3.10
2023-04-30T21:40:26.744Z,2.60
2023-04-30T21:42:54.683Z,2.80
2023-04-30T21:45:21.832Z,2.63
2023-04-30T21:47:49.204Z,2.80
2023-04-30T21:50:16.377Z,3.00
2023-04-30T21:52:43.152Z,2.60
2023-04-30T21:55:10.438Z,2.63
2023-04-30T21:57:37.554Z,2.60
2023-04-30T22:00:06.386Z,2.63
2023-04-30T22:02:33.669Z,2.60
2023-04-30T22:05:01.010Z,2.80
2023-04-30T22:07:28.028Z,2.80
2023-04-30T22:09:55.541Z,2.50
2023-04-30T22:12:25.015Z,2.70
2023-04-30T22:14:55.522Z,2.60
2023-04-30T22:17:22.782Z,2.80
2023-04-30T22:19:49.964Z,2.83
2023-04-30T22:22:16.782Z,2.70
2023-04-30T22:24:43.887Z,2.87
2023-04-30T22:27:10.968Z,2.67
2023-04-30T22:29:38.518Z,2.77
2023-04-30T22:32:06.480Z,2.70
2023-04-30T22:34:40.071Z,3.40
2023-04-30T22:37:08.069Z,2.50
2023-04-30T22:39:35.340Z,2.87
2023-04-30T22:42:02.945Z,3.27
2023-04-30T22:44:30.192Z,3.97
2023-04-30T22:47:01.584Z,3.83
2023-04-30T22:49:31.736Z,4.27
2023-04-30T22:51:59.585Z,4.20
2023-04-30T22:54:26.842Z,3.40
2023-04-30T22:56:53.762Z,3.17
2023-04-30T22:59:21.028Z,3.47
2023-04-30T23:01:48.053Z,2.90
2023-04-30T23:04:15.464Z,3.20
2023-04-30T23:06:42.940Z,3.20
2023-04-30T23:09:10.256Z,3.20
2023-04-30T23:11:37.374Z,2.73
2023-04-30T23:14:04.650Z,3.20
2023-04-30T23:16:31.923Z,3.43
2023-04-30T23:18:59.145Z,3.20
2023-04-30T23:21:26.827Z,3.10
2023-04-30T23:23:54.032Z,3.27
2023-04-30T23:26:21.177Z,3.37
2023-04-30T23:28:48.317Z,3.50
2023-04-30T23:31:15.515Z,3.43
2023-04-30T23:33:42.592Z,3.17
2023-04-30T23:36:09.720Z,3.17
2023-04-30T23:38:36.795Z,3.30
2023-04-30T23:41:03.592Z,3.20
2023-04-30T23:43:31.438Z,3.20
2023-04-30T23:46:00.026Z,3.10
2023-04-30T23:48:27.282Z,2.90
2023-04-30T23:51:01.536Z,3.13
2023-04-30T23:53:28.941Z,2.90
2023-04-30T23:55:58.193Z,2.90
2023-04-30T23:58:25.812Z,3.10
